Flight Track Log - Related Links

Times and Time Zones

All times are in EDT time to prevent confusion due to time zone crossing. See the N327TA flight status page for this flight to view local times or setup timezone preferences in your user account.

Time Position Orientation Groundspeed Altitude Reporting Facility
EDT Latitude Longitude Course Direction KTS MPH feet Rate Location/Type
Tue 05:04:11 PM 33.9833 -118.5000 292° West 138 159 1,400  Level Southern California TRACON
Tue 05:05:17 PM 33.9833 -118.5500 270° West 143 165 2,100 709 Climbing Southern California TRACON
Tue 05:06:18 PM 33.9883 -118.5972 277° West 131 151 2,900 780 Climbing Los Angeles Center
Tue 05:07:20 PM 34.0036 -118.6419 292° West 134 154 3,700 774 Climbing Los Angeles Center
Tue 05:08:22 PM 34.0175 -118.6844 292° West 135 155 4,500 829 Climbing Los Angeles Center
Tue 05:09:00 PM 34.0980 -118.7440 292° West  Level FlightAware Approximate
Tue 05:09:23 PM 34.0292 -118.7317 287° West 136 157 5,400  Level Los Angeles Center
Tue 05:10:25 PM 34.0419 -118.7769 289° West 142 163 6,000 404 Climbing Los Angeles Center
Tue 05:10:52 PM 34.0414 -118.8019 268° West 167 192 6,000  Level Los Angeles Center
Tue 05:11:27 PM 34.0564 -118.8333 300° West 166 191 6,000  Level Los Angeles Center
Tue 05:11:59 PM 34.0592 -118.8614 277° West 174 200 6,000  Level Los Angeles Center
Tue 05:12:29 PM 34.0719 -118.8900 298° West 176 203 6,000  Level Los Angeles Center
Tue 05:12:59 PM 34.0822 -118.9161 295° West 181 208 6,000  Level Los Angeles Center
Tue 05:13:31 PM 34.0994 -118.9417 309° West 182 209 6,000  Level Los Angeles Center
Tue 05:14:00 PM 34.1094 -118.9697 293° West 185 213 6,000  Level Los Angeles Center
Tue 05:14:33 PM 34.1250 -118.9950 307° West 183 211 6,000  Level Los Angeles Center
Tue 05:15:01 PM 34.1367 -119.0233 296° West 185 213 6,000  Level Los Angeles Center
Tue 05:15:35 PM 34.1489 -119.0489 300° West 183 211 6,000  Level Los Angeles Center
Tue 05:16:01 PM 34.1636 -119.0769 302° West 185 213 6,000  Level Los Angeles Center
Tue 05:16:37 PM 34.1761 -119.1011 302° West 183 211 6,000  Level Los Angeles Center
Tue 05:17:02 PM 34.1847 -119.1325 288° West 185 213 6,000 -194 Level Los Angeles Center
Tue 05:17:39 PM 34.1956 -119.1711 289° West 185 213 5,800 -500 Descending Los Angeles Center
Tue 05:18:02 PM 34.2047 -119.1936 296° West 191 220 5,500 -581 Descending Los Angeles Center
Tue 05:18:41 PM 34.2150 -119.2317 288° West 189 217 5,200 -590 Descending Los Angeles Center
Tue 05:19:03 PM 34.2250 -119.2547 298° West 200 230 4,900 -706 Descending Los Angeles Center
Tue 05:19:32 PM 34.2317 -119.2839 285° West 197 227 4,600 -529 Descending Los Angeles Center
Tue 05:20:45 PM 34.2539 -119.3556 291° West 196 226 4,000 -271 Descending Los Angeles Center
Tue 05:21:45 PM 34.2758 -119.4125 295° West 175 201 4,000  Level Los Angeles Center
Tue 05:22:46 PM 34.2769 -119.4644 271° West 165 190 4,000  Level Los Angeles Center
Tue 05:23:46 PM 34.2681 -119.5219 259° West 164 189 4,000  Level Los Angeles Center
Tue 05:24:47 PM 34.2644 -119.5728 265° West 161 185 4,000 -246 Level Los Angeles Center
Tue 05:25:48 PM 34.2844 -119.6233 296° West 162 186 3,500 -472 Descending Los Angeles Center
Tue 05:26:54 PM 34.3125 -119.6717 305° West 156 180 3,000 -236 Descending Los Angeles Center
Tue 05:27:55 PM 34.3453 -119.6636 11° North 140 161 3,000  Level Los Angeles Center
Tue 05:28:56 PM 34.3242 -119.6367 133° Southeast 151 174 3,000 -236 Level Los Angeles Center
Tue 05:30:02 PM 34.3272 -119.6822 275° West 150 173 2,500 -446 Descending Los Angeles Center
Tue 05:30:57 PM 34.3558 -119.7200 313° West 157 181 2,100 -492 Descending Los Angeles Center
Tue 05:32:04 PM 34.3853 -119.7653 308° West 153 176 1,500 -472 Descending Los Angeles Center
Tue 05:33:04 PM 34.4167 -119.7889 328° Northwest 138 159 1,100 -574 Descending Los Angeles Center
Tue 05:33:59 PM 34.4286 -119.8139 300° West 107 123 400 -764 Descending Los Angeles Center
Tue 05:36:00 PM 34.4167 -119.8333 292° West  Level FlightAware Approximate

Login

Don't have an account? Register now (free) for customized features, flight alerts, and more!